DTTX

Sfax Thyna International Airport

Sfax, Tunisia
METAR DTTX 172200Z 08006KT CAVOK 28/20 Q1016 NOSIG
Observed Flight Rules
Jul-17 @ 22:00 UTC (an hour ago) Visual Flight Rules
Wind Visibility Clouds
80° at 6 knots 10,000+ meters
  • Clear skies
Temperatures Readings
Current 28°C / 82°F
Dewpoint 20°C / 68°F
Humidity 62%
Altimeter 30" Hg
Pressure 1016 hPa
Elevation 23
METAR DTTX 172200Z 08006KT CAVOK 28/20 Q1016 NOSIG
Observed Flight Rules
Jul-17 @ 22:00 UTC
(an hour ago)
VFR
Wind Visibility
80° at 6 knots 10,000+ meters
Clouds
  • Clear skies
Temperature Dewpoint
28°C / 82°F 20°C / 68°F
Humidity Altimeter Pressure
62% 30" Hg 1016 hPa